Aérodrome :
LOGIN :

S'inscrire | Disclaimer

   EN    FR    IT 

 










Légende :    VFR   VFR Marginal   IFR   IFR Intensif   IFR Très Intensif
Visi : 
Plafond : 
>= 8 km
>= 3000ft
5 à 8 km
1000 à 3000 ft
1500m à 5 km
500 à 1000 ft
800 à 1500m
200 à 500 ft
< 800m
< 200 ft
Symboles :   Orages  Brouillard  Fortes neiges  Fortes précipitations  Vent > 20 kt
SIGMETs :   Divers  Orages  Givrage  Turbulence  Onde Orograph.  Cendres Volcan.






- Altitude de l'aérodrome : 63 ft
- Code IATA : BZM


EHWO - Woensdrecht Airbase

DERNIER METAR :
  • 102125Z AUTO 19012G23KT 140V240 9999 OVC022 07/03 Q1010 WHT

METARs EXPIRÉS :
  • 102101Z AUTO 19012KT 150V240 9999 BKN024 OVC028 07/03 Q1011 WHT
  • 102100Z AUTO 20012G22KT 160V230 9999 BKN025 OVC028 07/03 Q1011 BLU
  • 102055Z AUTO 19013KT 150V230 9999 OVC026 07/03 Q1011 BLU
  • 102043Z AUTO 19013G24KT 150V240 9999 SCT024 BKN027 OVC031 07/03 Q1011 WHT
  • 102031Z AUTO 19013G24KT 150V230 9999 FEW022 SCT026 BKN030 07/02 Q1011 BLU
  • 101955Z AUTO 19013G23KT 150V230 9999 OVC031 07/02 Q1012 BLU
  • 101925Z AUTO 20014G26KT 150V250 9999 FEW018 BKN030 OVC036 07/02 Q1012 BLU
  • 101855Z AUTO 19013G27KT 100V240 9999 FEW032 OVC047 07/02 Q1013 BLU

TAF TAF EHWO
Valide du 10 à 10h jusqu'au 10 à 22h UTC


100930Z 1010/1022 18007KT CAVOK
BECMG 1010/1012 19012G25KT
BECMG 1015/1018 19016G30KT
PROB40
TEMPO 1016/1022 20018G35KT



MET'MAP, la Météo Aéronautique d'un coup d'oeil ! - Copyright ORBIFLY Décembre 2007 - Disclaimer

ORBIFLY MET'MAP TEAM :

Programmation & Développement : Alexandra Zaïnal
Sur une idée originale de : Baudouin d'Aumeries
Assistance à la programmation : Marc-Olivier Méhu
Soutien technique & logistique : Manuel Goepfert

Contact : metmap@orbifly.com




SOURCES & CREDITS :

   NOAA